Wetterdaten: Woche 10.09.07 - 16.09.07 (KW37)
Datum Zeit Temperatur Luftfeuchte Luftdruck Niederschlag
10.09.2007 00:00 8,8 C 85 % 1022 hPa 0,0 l/m
10.09.2007 01:00 8,0 C 86 % 1021 hPa 0,0 l/m
10.09.2007 02:00 7,3 C 88 % 1021 hPa 0,0 l/m
10.09.2007 03:00 6,7 C 90 % 1021 hPa 0,0 l/m
10.09.2007 04:00 6,1 C 91 % 1021 hPa 0,0 l/m
10.09.2007 05:00 5,6 C 92 % 1020 hPa 0,0 l/m
10.09.2007 06:00 5,2 C 93 % 1020 hPa 0,0 l/m
10.09.2007 07:00 5,1 C 94 % 1020 hPa 0,0 l/m
10.09.2007 08:00 5,9 C 95 % 1019 hPa 0,0 l/m
10.09.2007 09:00 8,9 C 96 % 1019 hPa 0,0 l/m
10.09.2007 10:00 12,4 C 93 % 1019 hPa 0,0 l/m
10.09.2007 11:00 14,9 C 69 % 1019 hPa 0,0 l/m
10.09.2007 12:00 16,5 C 50 % 1018 hPa 0,0 l/m
10.09.2007 13:00 17,3 C 46 % 1018 hPa 0,0 l/m
10.09.2007 14:00 17,1 C 48 % 1017 hPa 0,0 l/m
10.09.2007 15:00 16,7 C 51 % 1017 hPa 0,0 l/m
10.09.2007 16:00 15,5 C 53 % 1017 hPa 0,0 l/m
10.09.2007 17:00 15,1 C 51 % 1016 hPa 0,0 l/m
10.09.2007 18:00 14,8 C 49 % 1016 hPa 0,0 l/m
10.09.2007 19:00 14,3 C 53 % 1016 hPa 0,0 l/m
10.09.2007 20:00 14,1 C 57 % 1016 hPa 0,0 l/m
10.09.2007 21:00 13,6 C 65 % 1017 hPa 0,0 l/m
10.09.2007 22:00 12,6 C 77 % 1017 hPa 2,0 l/m
10.09.2007 23:00 11,6 C 84 % 1017 hPa 3,0 l/m
11.09.2007 00:00 11,0 C 89 % 1017 hPa 0,0 l/m
11.09.2007 01:00 10,9 C 92 % 1017 hPa 1,0 l/m
11.09.2007 02:00 10,9 C 93 % 1017 hPa 2,0 l/m
11.09.2007 03:00 10,7 C 94 % 1017 hPa 0,0 l/m
11.09.2007 04:00 10,4 C 94 % 1017 hPa 0,0 l/m
11.09.2007 05:00 9,5 C 94 % 1018 hPa 0,0 l/m
11.09.2007 06:00 8,7 C 93 % 1019 hPa 0,0 l/m
11.09.2007 07:00 8,5 C 93 % 1020 hPa 0,0 l/m
11.09.2007 08:00 8,7 C 94 % 1020 hPa 0,0 l/m
11.09.2007 09:00 10,1 C 93 % 1021 hPa 0,0 l/m
11.09.2007 10:00 11,1 C 84 % 1021 hPa 0,0 l/m
11.09.2007 11:00 12,1 C 73 % 1022 hPa 0,0 l/m
11.09.2007 12:00 12,9 C 64 % 1022 hPa 0,0 l/m
11.09.2007 13:00 13,1 C 61 % 1022 hPa 0,0 l/m
11.09.2007 14:00 13,0 C 60 % 1022 hPa 0,0 l/m
11.09.2007 15:00 14,0 C 57 % 1022 hPa 0,0 l/m
11.09.2007 16:00 14,3 C 53 % 1022 hPa 0,0 l/m
11.09.2007 17:00 14,1 C 54 % 1023 hPa 0,0 l/m
11.09.2007 18:00 13,7 C 53 % 1023 hPa 0,0 l/m
11.09.2007 19:00 12,8 C 61 % 1024 hPa 0,0 l/m
11.09.2007 20:00 11,1 C 70 % 1024 hPa 0,0 l/m
11.09.2007 21:00 10,2 C 75 % 1025 hPa 0,0 l/m
11.09.2007 22:00 8,8 C 79 % 1025 hPa 0,0 l/m
11.09.2007 23:00 7,8 C 84 % 1025 hPa 0,0 l/m
12.09.2007 00:00 7,0 C 86 % 1025 hPa 0,0 l/m
12.09.2007 01:00 6,4 C 88 % 1025 hPa 0,0 l/m
12.09.2007 02:00 5,7 C 90 % 1025 hPa 0,0 l/m
12.09.2007 03:00 5,4 C 92 % 1025 hPa 0,0 l/m
12.09.2007 04:00 5,2 C 93 % 1025 hPa 0,0 l/m
12.09.2007 05:00 5,6 C 94 % 1025 hPa 0,0 l/m
12.09.2007 06:00 5,8 C 95 % 1024 hPa 0,0 l/m
12.09.2007 07:00 6,1 C 96 % 1025 hPa 0,0 l/m
12.09.2007 08:00 8,1 C 96 % 1025 hPa 0,0 l/m
12.09.2007 09:00 10,9 C 95 % 1025 hPa 0,0 l/m
12.09.2007 10:00 14,0 C 77 % 1025 hPa 0,0 l/m
12.09.2007 11:00 15,4 C 61 % 1026 hPa 0,0 l/m
12.09.2007 12:00 15,9 C 56 % 1026 hPa 0,0 l/m
12.09.2007 13:00 17,0 C 49 % 1026 hPa 0,0 l/m
12.09.2007 14:00 17,6 C 45 % 1026 hPa 0,0 l/m
12.09.2007 15:00 17,8 C 44 % 1025 hPa 0,0 l/m
12.09.2007 16:00 17,4 C 43 % 1025 hPa 0,0 l/m
12.09.2007 17:00 17,0 C 45 % 1025 hPa 0,0 l/m
12.09.2007 18:00 15,9 C 51 % 1025 hPa 0,0 l/m
12.09.2007 19:00 14,7 C 57 % 1025 hPa 0,0 l/m
12.09.2007 20:00 12,6 C 67 % 1026 hPa 0,0 l/m
12.09.2007 21:00 11,0 C 75 % 1026 hPa 0,0 l/m
12.09.2007 22:00 10,1 C 81 % 1026 hPa 0,0 l/m
12.09.2007 23:00 9,6 C 84 % 1027 hPa 0,0 l/m
13.09.2007 00:00 9,2 C 86 % 1027 hPa 0,0 l/m
13.09.2007 01:00 8,9 C 89 % 1026 hPa 0,0 l/m
13.09.2007 02:00 8,7 C 91 % 1026 hPa 0,0 l/m
13.09.2007 03:00 8,5 C 92 % 1026 hPa 0,0 l/m
13.09.2007 04:00 8,1 C 93 % 1026 hPa 0,0 l/m
13.09.2007 05:00 7,7 C 94 % 1025 hPa 0,0 l/m
13.09.2007 06:00 7,4 C 95 % 1025 hPa 0,0 l/m
13.09.2007 07:00 7,4 C 96 % 1026 hPa 0,0 l/m
13.09.2007 08:00 8,2 C 96 % 1026 hPa 0,0 l/m
13.09.2007 09:00 9,0 C 97 % 1026 hPa 0,0 l/m
13.09.2007 10:00 11,2 C 96 % 1026 hPa 0,0 l/m
13.09.2007 11:00 14,7 C 71 % 1026 hPa 0,0 l/m
13.09.2007 12:00 16,2 C 52 % 1026 hPa 0,0 l/m
13.09.2007 13:00 17,6 C 46 % 1025 hPa 0,0 l/m
13.09.2007 14:00 18,9 C 43 % 1025 hPa 0,0 l/m
13.09.2007 15:00 19,3 C 40 % 1024 hPa 0,0 l/m
13.09.2007 16:00 19,1 C 41 % 1024 hPa 0,0 l/m
13.09.2007 17:00 18,6 C 43 % 1023 hPa 0,0 l/m
13.09.2007 18:00 18,3 C 45 % 1023 hPa 0,0 l/m
13.09.2007 19:00 16,6 C 53 % 1023 hPa 0,0 l/m
13.09.2007 20:00 13,7 C 66 % 1023 hPa 0,0 l/m
13.09.2007 21:00 12,0 C 74 % 1023 hPa 0,0 l/m
13.09.2007 22:00 11,2 C 79 % 1023 hPa 0,0 l/m
13.09.2007 23:00 10,8 C 83 % 1023 hPa 0,0 l/m
14.09.2007 00:00 10,3 C 85 % 1022 hPa 0,0 l/m
14.09.2007 01:00 9,7 C 87 % 1022 hPa 0,0 l/m
14.09.2007 02:00 8,8 C 88 % 1022 hPa 0,0 l/m
14.09.2007 03:00 8,1 C 89 % 1022 hPa 0,0 l/m
14.09.2007 04:00 7,6 C 90 % 1021 hPa 0,0 l/m
14.09.2007 05:00 7,2 C 91 % 1021 hPa 0,0 l/m
14.09.2007 06:00 6,9 C 93 % 1021 hPa 0,0 l/m
14.09.2007 07:00 7,1 C 94 % 1021 hPa 0,0 l/m
14.09.2007 08:00 8,5 C 95 % 1021 hPa 0,0 l/m
14.09.2007 09:00 11,6 C 96 % 1021 hPa 0,0 l/m
14.09.2007 10:00 14,8 C 88 % 1022 hPa 0,0 l/m
14.09.2007 11:00 17,6 C 71 % 1021 hPa 0,0 l/m
14.09.2007 12:00 19,7 C 57 % 1021 hPa 0,0 l/m
14.09.2007 13:00 20,7 C 49 % 1021 hPa 0,0 l/m
14.09.2007 14:00 21,7 C 44 % 1021 hPa 0,0 l/m
14.09.2007 15:00 21,9 C 45 % 1020 hPa 0,0 l/m
14.09.2007 16:00 21,9 C 45 % 1020 hPa 0,0 l/m
14.09.2007 17:00 21,5 C 48 % 1020 hPa 0,0 l/m
14.09.2007 18:00 20,3 C 53 % 1020 hPa 0,0 l/m
14.09.2007 19:00 18,9 C 61 % 1020 hPa 0,0 l/m
14.09.2007 20:00 17,6 C 69 % 1021 hPa 0,0 l/m
14.09.2007 21:00 16,2 C 73 % 1021 hPa 0,0 l/m
14.09.2007 22:00 16,1 C 69 % 1022 hPa 0,0 l/m
14.09.2007 23:00 15,4 C 70 % 1022 hPa 0,0 l/m
15.09.2007 00:00 14,2 C 73 % 1023 hPa 0,0 l/m
15.09.2007 01:00 12,8 C 78 % 1023 hPa 0,0 l/m
15.09.2007 02:00 12,4 C 84 % 1023 hPa 0,0 l/m
15.09.2007 03:00 11,5 C 85 % 1023 hPa 0,0 l/m
15.09.2007 04:00 10,9 C 88 % 1023 hPa 0,0 l/m
15.09.2007 05:00 11,2 C 91 % 1024 hPa 0,0 l/m
15.09.2007 06:00 11,7 C 92 % 1024 hPa 0,0 l/m
15.09.2007 07:00 12,0 C 93 % 1025 hPa 0,0 l/m
15.09.2007 08:00 12,4 C 93 % 1025 hPa 0,0 l/m
15.09.2007 09:00 13,8 C 92 % 1025 hPa 0,0 l/m
15.09.2007 10:00 15,7 C 82 % 1026 hPa 0,0 l/m
15.09.2007 11:00 17,1 C 61 % 1026 hPa 0,0 l/m
15.09.2007 12:00 18,0 C 53 % 1026 hPa 0,0 l/m
15.09.2007 13:00 18,5 C 52 % 1026 hPa 0,0 l/m
15.09.2007 14:00 18,7 C 52 % 1026 hPa 0,0 l/m
15.09.2007 15:00 19,1 C 48 % 1026 hPa 0,0 l/m
15.09.2007 16:00 18,8 C 47 % 1025 hPa 0,0 l/m
15.09.2007 17:00 18,6 C 47 % 1024 hPa 0,0 l/m
15.09.2007 18:00 18,1 C 47 % 1024 hPa 0,0 l/m
15.09.2007 19:00 16,8 C 56 % 1024 hPa 0,0 l/m
15.09.2007 20:00 14,3 C 68 % 1024 hPa 0,0 l/m
15.09.2007 21:00 12,9 C 75 % 1024 hPa 0,0 l/m
15.09.2007 22:00 11,9 C 81 % 1024 hPa 0,0 l/m
15.09.2007 23:00 11,3 C 84 % 1024 hPa 0,0 l/m
16.09.2007 00:00 10,8 C 86 % 1024 hPa 0,0 l/m
16.09.2007 01:00 10,4 C 88 % 1024 hPa 0,0 l/m
16.09.2007 02:00 10,0 C 89 % 1023 hPa 0,0 l/m
16.09.2007 03:00 9,5 C 91 % 1023 hPa 0,0 l/m
16.09.2007 04:00 9,2 C 92 % 1023 hPa 0,0 l/m
16.09.2007 05:00 8,8 C 93 % 1022 hPa 0,0 l/m
16.09.2007 06:00 8,4 C 94 % 1022 hPa 0,0 l/m
16.09.2007 07:00 8,0 C 94 % 1022 hPa 0,0 l/m
16.09.2007 08:00 9,1 C 95 % 1022 hPa 0,0 l/m
16.09.2007 09:00 11,9 C 95 % 1022 hPa 0,0 l/m
16.09.2007 10:00 15,4 C 81 % 1022 hPa 0,0 l/m
16.09.2007 11:00 17,9 C 64 % 1022 hPa 0,0 l/m
16.09.2007 12:00 18,7 C 62 % 1021 hPa 0,0 l/m
16.09.2007 13:00 20,6 C 56 % 1021 hPa 0,0 l/m
16.09.2007 14:00 22,3 C 45 % 1020 hPa 0,0 l/m
16.09.2007 15:00 22,8 C 38 % 1020 hPa 0,0 l/m
16.09.2007 16:00 22,1 C 39 % 1019 hPa 0,0 l/m
16.09.2007 17:00 21,6 C 43 % 1018 hPa 0,0 l/m
16.09.2007 18:00 21,0 C 46 % 1018 hPa 0,0 l/m
16.09.2007 19:00 18,7 C 57 % 1018 hPa 0,0 l/m
16.09.2007 20:00 16,8 C 66 % 1018 hPa 0,0 l/m
16.09.2007 21:00 15,9 C 70 % 1018 hPa 0,0 l/m
16.09.2007 22:00 14,9 C 75 % 1018 hPa 0,0 l/m
16.09.2007 23:00 14,2 C 81 % 1018 hPa 0,0 l/m
Min-Datum _ 10.09.07 16.09.07 10.09.07 -
_ Min-Zeit 07:00 15:08 15:41 -
Minimum _ 5,0 C 37 % 1016 hPa -
Max-Datum _ 16.09.07 13.09.07 12.09.07 10.09.07
_ Max-Zeit 15:17 09:56 23:26 23:02
Maximum _ 23,0 C 98 % 1027 hPa 3,0 l/m
Durchschnitt _ 13,0 C 73 % 1023 hPa #8,0 l/m

Durchschnitt Minimum Temp.12,5 C
Durchschnitt Maximum Temp.13,5 C